Rondeau, Canada
Current Conditions -  °F | °C
As of 5:13 AM on Tuesday 27 Jan 2015 (Local Time) from CYCK Reporting Station
Light Snow Light Snow  
Wind Chill:   Ceiling: 2800
Heat Index: 12°   Visibility: 9mi
Dew Point:   Wind: 9mph
Humidity: 85%   Direction: 350°N
Pressure: 29.99"   Gusts: NA
Location:  42.28°N, 81.87°W
Report Text: CYCK 271013Z AUTO 35008KT 9SM -SN OVC028 M11/M13 A2999 RMK SLP168
Loading
Personal Weather Stations






























Interactive Weather Map New forecast layout! Learn more

10-Day Weather Forecast

Advertisements
Track Severe Weather on mobile